sensor_id;sensor_type;location;lat;lon;timestamp;temperature;humidity
1361;DHT22;674;45.552;-122.600;2022-08-02T00:01:01;30.20;1.00
1361;DHT22;674;45.552;-122.600;2022-08-02T00:03:30;30.20;1.00
1361;DHT22;674;45.552;-122.600;2022-08-02T00:05:59;30.10;1.00
1361;DHT22;674;45.552;-122.600;2022-08-02T00:08:27;30.10;1.00
1361;DHT22;674;45.552;-122.600;2022-08-02T00:10:55;30.30;1.00
1361;DHT22;674;45.552;-122.600;2022-08-02T00:13:24;30.00;1.00
1361;DHT22;674;45.552;-122.600;2022-08-02T00:15:52;30.10;1.00
1361;DHT22;674;45.552;-122.600;2022-08-02T00:18:21;30.10;1.00
1361;DHT22;674;45.552;-122.600;2022-08-02T00:20:49;30.10;1.00
1361;DHT22;674;45.552;-122.600;2022-08-02T00:23:18;30.20;1.00
1361;DHT22;674;45.552;-122.600;2022-08-02T00:25:46;30.30;1.00
1361;DHT22;674;45.552;-122.600;2022-08-02T00:28:23;29.90;1.00
1361;DHT22;674;45.552;-122.600;2022-08-02T00:30:58;29.80;1.00
1361;DHT22;674;45.552;-122.600;2022-08-02T00:33:27;29.90;1.00
1361;DHT22;674;45.552;-122.600;2022-08-02T00:36:15;30.00;1.00
1361;DHT22;674;45.552;-122.600;2022-08-02T00:38:44;30.20;1.00
1361;DHT22;674;45.552;-122.600;2022-08-02T00:41:18;30.30;1.00
1361;DHT22;674;45.552;-122.600;2022-08-02T00:43:49;30.00;1.00
1361;DHT22;674;45.552;-122.600;2022-08-02T00:46:18;30.20;1.00
1361;DHT22;674;45.552;-122.600;2022-08-02T00:48:47;30.20;1.00
1361;DHT22;674;45.552;-122.600;2022-08-02T00:51:17;30.40;1.00
1361;DHT22;674;45.552;-122.600;2022-08-02T00:53:45;30.40;1.00
1361;DHT22;674;45.552;-122.600;2022-08-02T00:56:14;30.30;1.00
1361;DHT22;674;45.552;-122.600;2022-08-02T00:58:42;30.30;1.00
1361;DHT22;674;45.552;-122.600;2022-08-02T01:01:11;30.20;1.00
1361;DHT22;674;45.552;-122.600;2022-08-02T01:03:39;30.40;1.00
1361;DHT22;674;45.552;-122.600;2022-08-02T01:06:07;30.30;1.00
1361;DHT22;674;45.552;-122.600;2022-08-02T01:08:38;30.60;1.00
1361;DHT22;674;45.552;-122.600;2022-08-02T01:11:07;30.30;1.00
1361;DHT22;674;45.552;-122.600;2022-08-02T01:13:36;30.30;1.00
1361;DHT22;674;45.552;-122.600;2022-08-02T01:16:11;30.40;1.00
1361;DHT22;674;45.552;-122.600;2022-08-02T01:18:47;30.20;1.00
1361;DHT22;674;45.552;-122.600;2022-08-02T01:24:29;30.10;1.00
1361;DHT22;674;45.552;-122.600;2022-08-02T01:29:58;30.00;1.00
1361;DHT22;674;45.552;-122.600;2022-08-02T01:32:32;29.80;1.00
1361;DHT22;674;45.552;-122.600;2022-08-02T01:35:09;29.80;1.00
1361;DHT22;674;45.552;-122.600;2022-08-02T01:37:47;29.70;1.00
1361;DHT22;674;45.552;-122.600;2022-08-02T01:40:29;29.70;1.00
1361;DHT22;674;45.552;-122.600;2022-08-02T01:42:59;29.70;1.00
1361;DHT22;674;45.552;-122.600;2022-08-02T01:45:33;29.50;1.00
1361;DHT22;674;45.552;-122.600;2022-08-02T01:48:03;29.60;1.00
1361;DHT22;674;45.552;-122.600;2022-08-02T01:50:35;29.50;1.00
1361;DHT22;674;45.552;-122.600;2022-08-02T01:53:08;29.50;1.00
1361;DHT22;674;45.552;-122.600;2022-08-02T01:55:43;29.40;1.00
1361;DHT22;674;45.552;-122.600;2022-08-02T01:58:28;29.30;1.00
1361;DHT22;674;45.552;-122.600;2022-08-02T02:00:59;29.30;1.00
1361;DHT22;674;45.552;-122.600;2022-08-02T02:03:28;29.10;1.00
1361;DHT22;674;45.552;-122.600;2022-08-02T02:06:01;29.20;1.00
1361;DHT22;674;45.552;-122.600;2022-08-02T02:08:35;29.10;1.00
1361;DHT22;674;45.552;-122.600;2022-08-02T02:11:05;29.20;1.00
1361;DHT22;674;45.552;-122.600;2022-08-02T02:13:57;29.10;1.00
1361;DHT22;674;45.552;-122.600;2022-08-02T02:16:28;28.90;1.00
1361;DHT22;674;45.552;-122.600;2022-08-02T02:19:01;28.80;1.00
1361;DHT22;674;45.552;-122.600;2022-08-02T02:21:30;28.80;1.00
1361;DHT22;674;45.552;-122.600;2022-08-02T02:24:02;28.70;1.00
1361;DHT22;674;45.552;-122.600;2022-08-02T02:26:36;28.60;1.00
1361;DHT22;674;45.552;-122.600;2022-08-02T02:29:19;28.50;1.00
1361;DHT22;674;45.552;-122.600;2022-08-02T02:31:52;28.40;1.00
1361;DHT22;674;45.552;-122.600;2022-08-02T02:34:47;28.20;1.00
1361;DHT22;674;45.552;-122.600;2022-08-02T02:37:22;28.10;1.00
1361;DHT22;674;45.552;-122.600;2022-08-02T02:39:54;28.00;1.00
1361;DHT22;674;45.552;-122.600;2022-08-02T02:42:28;28.00;1.00
1361;DHT22;674;45.552;-122.600;2022-08-02T02:44:58;27.90;1.00
1361;DHT22;674;45.552;-122.600;2022-08-02T02:47:28;27.70;1.00
1361;DHT22;674;45.552;-122.600;2022-08-02T02:50:08;27.70;1.00
1361;DHT22;674;45.552;-122.600;2022-08-02T02:52:41;27.60;1.00
1361;DHT22;674;45.552;-122.600;2022-08-02T02:55:10;27.60;1.00
1361;DHT22;674;45.552;-122.600;2022-08-02T02:57:39;27.60;1.00
1361;DHT22;674;45.552;-122.600;2022-08-02T03:00:11;27.40;1.00
1361;DHT22;674;45.552;-122.600;2022-08-02T03:02:42;27.40;1.00
1361;DHT22;674;45.552;-122.600;2022-08-02T03:05:11;27.20;1.00
1361;DHT22;674;45.552;-122.600;2022-08-02T03:07:40;27.00;1.00
1361;DHT22;674;45.552;-122.600;2022-08-02T03:10:09;26.80;1.00
1361;DHT22;674;45.552;-122.600;2022-08-02T03:12:37;26.70;1.00
1361;DHT22;674;45.552;-122.600;2022-08-02T03:15:07;26.70;1.00
1361;DHT22;674;45.552;-122.600;2022-08-02T03:17:42;26.60;1.00
1361;DHT22;674;45.552;-122.600;2022-08-02T03:20:16;26.50;1.00
1361;DHT22;674;45.552;-122.600;2022-08-02T03:22:45;26.30;1.00
1361;DHT22;674;45.552;-122.600;2022-08-02T03:25:14;26.20;1.00
1361;DHT22;674;45.552;-122.600;2022-08-02T03:27:43;25.90;1.00
1361;DHT22;674;45.552;-122.600;2022-08-02T03:30:13;25.70;1.00
1361;DHT22;674;45.552;-122.600;2022-08-02T03:32:44;25.70;1.00
1361;DHT22;674;45.552;-122.600;2022-08-02T03:35:14;25.60;1.00
1361;DHT22;674;45.552;-122.600;2022-08-02T03:37:51;25.50;1.00
1361;DHT22;674;45.552;-122.600;2022-08-02T03:40:21;25.40;1.00
1361;DHT22;674;45.552;-122.600;2022-08-02T03:42:50;25.40;1.00
1361;DHT22;674;45.552;-122.600;2022-08-02T03:45:19;25.30;1.00
1361;DHT22;674;45.552;-122.600;2022-08-02T03:47:49;25.10;1.00
1361;DHT22;674;45.552;-122.600;2022-08-02T03:50:18;25.00;1.00
1361;DHT22;674;45.552;-122.600;2022-08-02T03:52:50;24.80;1.00
1361;DHT22;674;45.552;-122.600;2022-08-02T03:55:18;24.70;1.00
1361;DHT22;674;45.552;-122.600;2022-08-02T03:57:47;24.60;1.00
1361;DHT22;674;45.552;-122.600;2022-08-02T04:00:20;24.60;1.00
1361;DHT22;674;45.552;-122.600;2022-08-02T04:02:49;24.40;1.00
1361;DHT22;674;45.552;-122.600;2022-08-02T04:05:18;24.40;1.00
1361;DHT22;674;45.552;-122.600;2022-08-02T04:07:46;24.30;1.00
1361;DHT22;674;45.552;-122.600;2022-08-02T04:10:38;24.30;1.00
1361;DHT22;674;45.552;-122.600;2022-08-02T04:13:30;24.10;1.00
1361;DHT22;674;45.552;-122.600;2022-08-02T04:16:49;24.00;1.00
1361;DHT22;674;45.552;-122.600;2022-08-02T04:19:00;23.90;1.00
1361;DHT22;674;45.552;-122.600;2022-08-02T04:21:35;23.90;1.00
1361;DHT22;674;45.552;-122.600;2022-08-02T04:24:22;23.80;1.00
1361;DHT22;674;45.552;-122.600;2022-08-02T04:26:56;23.70;1.00
1361;DHT22;674;45.552;-122.600;2022-08-02T04:29:33;23.70;1.00
1361;DHT22;674;45.552;-122.600;2022-08-02T04:32:03;23.60;1.00
1361;DHT22;674;45.552;-122.600;2022-08-02T04:34:32;23.60;1.00
1361;DHT22;674;45.552;-122.600;2022-08-02T04:37:00;23.60;1.00
1361;DHT22;674;45.552;-122.600;2022-08-02T04:39:29;23.40;1.00
1361;DHT22;674;45.552;-122.600;2022-08-02T04:41:57;23.30;1.00
1361;DHT22;674;45.552;-122.600;2022-08-02T04:44:26;23.20;1.00
1361;DHT22;674;45.552;-122.600;2022-08-02T04:46:55;23.10;1.00
1361;DHT22;674;45.552;-122.600;2022-08-02T04:49:31;23.10;1.00
1361;DHT22;674;45.552;-122.600;2022-08-02T04:51:59;23.00;1.00
1361;DHT22;674;45.552;-122.600;2022-08-02T04:54:28;23.00;1.00
1361;DHT22;674;45.552;-122.600;2022-08-02T04:56:56;22.90;1.00
1361;DHT22;674;45.552;-122.600;2022-08-02T04:59:24;23.00;1.00
1361;DHT22;674;45.552;-122.600;2022-08-02T05:01:53;22.90;1.00
1361;DHT22;674;45.552;-122.600;2022-08-02T05:04:22;22.80;1.00
1361;DHT22;674;45.552;-122.600;2022-08-02T05:06:50;22.70;1.00
1361;DHT22;674;45.552;-122.600;2022-08-02T05:09:18;22.70;1.00
1361;DHT22;674;45.552;-122.600;2022-08-02T05:11:47;22.50;1.00
1361;DHT22;674;45.552;-122.600;2022-08-02T05:14:21;22.60;1.00
1361;DHT22;674;45.552;-122.600;2022-08-02T05:16:50;22.40;1.00
1361;DHT22;674;45.552;-122.600;2022-08-02T05:19:18;22.40;1.00
1361;DHT22;674;45.552;-122.600;2022-08-02T05:21:47;22.40;1.00
1361;DHT22;674;45.552;-122.600;2022-08-02T05:24:15;22.30;1.00
1361;DHT22;674;45.552;-122.600;2022-08-02T05:26:43;22.20;1.00
1361;DHT22;674;45.552;-122.600;2022-08-02T05:29:12;22.20;1.00
1361;DHT22;674;45.552;-122.600;2022-08-02T05:31:40;22.20;1.00
1361;DHT22;674;45.552;-122.600;2022-08-02T05:34:09;22.20;1.00
1361;DHT22;674;45.552;-122.600;2022-08-02T05:36:38;22.20;1.00
1361;DHT22;674;45.552;-122.600;2022-08-02T05:39:08;22.30;1.00
1361;DHT22;674;45.552;-122.600;2022-08-02T05:41:45;22.10;1.00
1361;DHT22;674;45.552;-122.600;2022-08-02T05:44:13;22.00;1.00
1361;DHT22;674;45.552;-122.600;2022-08-02T05:46:42;21.90;1.00
1361;DHT22;674;45.552;-122.600;2022-08-02T05:49:10;21.90;1.00
1361;DHT22;674;45.552;-122.600;2022-08-02T05:54:38;21.90;1.00
1361;DHT22;674;45.552;-122.600;2022-08-02T06:00:11;21.80;1.00
1361;DHT22;674;45.552;-122.600;2022-08-02T06:05:21;21.70;1.00
1361;DHT22;674;45.552;-122.600;2022-08-02T06:07:50;21.70;1.00
1361;DHT22;674;45.552;-122.600;2022-08-02T06:10:22;21.70;1.00
1361;DHT22;674;45.552;-122.600;2022-08-02T06:13:08;21.70;1.00
1361;DHT22;674;45.552;-122.600;2022-08-02T06:15:41;21.70;1.00
1361;DHT22;674;45.552;-122.600;2022-08-02T06:18:20;21.60;1.00
1361;DHT22;674;45.552;-122.600;2022-08-02T06:21:01;21.50;1.00
1361;DHT22;674;45.552;-122.600;2022-08-02T06:23:50;21.50;1.00
1361;DHT22;674;45.552;-122.600;2022-08-02T06:26:26;21.50;1.00
1361;DHT22;674;45.552;-122.600;2022-08-02T06:28:56;21.30;1.00
1361;DHT22;674;45.552;-122.600;2022-08-02T06:31:25;21.20;1.00
1361;DHT22;674;45.552;-122.600;2022-08-02T06:33:54;21.10;1.00
1361;DHT22;674;45.552;-122.600;2022-08-02T06:36:49;21.00;1.00
1361;DHT22;674;45.552;-122.600;2022-08-02T06:39:31;21.00;1.00
1361;DHT22;674;45.552;-122.600;2022-08-02T06:42:11;20.90;1.00
1361;DHT22;674;45.552;-122.600;2022-08-02T06:44:40;20.90;1.00
1361;DHT22;674;45.552;-122.600;2022-08-02T06:47:17;20.90;1.00
1361;DHT22;674;45.552;-122.600;2022-08-02T06:49:45;20.90;1.00
1361;DHT22;674;45.552;-122.600;2022-08-02T06:52:28;20.80;1.00
1361;DHT22;674;45.552;-122.600;2022-08-02T06:54:59;20.80;1.00
1361;DHT22;674;45.552;-122.600;2022-08-02T06:57:29;20.80;1.00
1361;DHT22;674;45.552;-122.600;2022-08-02T06:59:58;20.60;1.00
1361;DHT22;674;45.552;-122.600;2022-08-02T07:02:31;20.40;1.00
1361;DHT22;674;45.552;-122.600;2022-08-02T07:05:00;20.30;1.00
1361;DHT22;674;45.552;-122.600;2022-08-02T07:07:28;20.20;1.00
1361;DHT22;674;45.552;-122.600;2022-08-02T07:09:57;20.20;1.00
1361;DHT22;674;45.552;-122.600;2022-08-02T07:12:32;20.20;1.00
1361;DHT22;674;45.552;-122.600;2022-08-02T07:15:04;20.10;1.00
1361;DHT22;674;45.552;-122.600;2022-08-02T07:17:34;20.10;1.00
1361;DHT22;674;45.552;-122.600;2022-08-02T07:20:03;19.90;1.00
1361;DHT22;674;45.552;-122.600;2022-08-02T07:22:31;19.90;1.00
1361;DHT22;674;45.552;-122.600;2022-08-02T07:25:00;19.90;1.00
1361;DHT22;674;45.552;-122.600;2022-08-02T07:27:29;19.90;1.00
1361;DHT22;674;45.552;-122.600;2022-08-02T07:29:58;19.80;1.00
1361;DHT22;674;45.552;-122.600;2022-08-02T07:32:29;19.70;1.00
1361;DHT22;674;45.552;-122.600;2022-08-02T07:34:59;19.50;4.10
1361;DHT22;674;45.552;-122.600;2022-08-02T07:37:34;19.30;8.70
1361;DHT22;674;45.552;-122.600;2022-08-02T07:40:24;19.30;10.40
1361;DHT22;674;45.552;-122.600;2022-08-02T07:42:55;19.30;11.00
1361;DHT22;674;45.552;-122.600;2022-08-02T07:45:31;19.20;16.00
1361;DHT22;674;45.552;-122.600;2022-08-02T07:48:11;19.20;17.90
1361;DHT22;674;45.552;-122.600;2022-08-02T07:50:40;19.30;17.70
1361;DHT22;674;45.552;-122.600;2022-08-02T07:53:08;19.30;16.30
1361;DHT22;674;45.552;-122.600;2022-08-02T07:55:37;19.30;17.30
1361;DHT22;674;45.552;-122.600;2022-08-02T07:58:08;19.20;18.40
1361;DHT22;674;45.552;-122.600;2022-08-02T08:00:42;19.10;22.40
1361;DHT22;674;45.552;-122.600;2022-08-02T08:03:11;19.00;26.20
1361;DHT22;674;45.552;-122.600;2022-08-02T08:05:39;19.00;26.50
1361;DHT22;674;45.552;-122.600;2022-08-02T08:08:08;19.00;30.30
1361;DHT22;674;45.552;-122.600;2022-08-02T08:10:43;18.90;36.50
1361;DHT22;674;45.552;-122.600;2022-08-02T08:13:12;19.00;29.90
1361;DHT22;674;45.552;-122.600;2022-08-02T08:15:41;19.00;30.70
1361;DHT22;674;45.552;-122.600;2022-08-02T08:18:20;18.90;38.30
1361;DHT22;674;45.552;-122.600;2022-08-02T08:20:49;18.80;41.20
1361;DHT22;674;45.552;-122.600;2022-08-02T08:23:18;18.80;49.80
1361;DHT22;674;45.552;-122.600;2022-08-02T08:25:47;18.80;56.90
1361;DHT22;674;45.552;-122.600;2022-08-02T08:28:15;18.80;53.40
1361;DHT22;674;45.552;-122.600;2022-08-02T08:30:44;18.80;55.40
1361;DHT22;674;45.552;-122.600;2022-08-02T08:33:14;18.80;56.60
1361;DHT22;674;45.552;-122.600;2022-08-02T08:35:42;18.60;64.00
1361;DHT22;674;45.552;-122.600;2022-08-02T08:38:11;18.60;71.70
1361;DHT22;674;45.552;-122.600;2022-08-02T08:40:39;18.60;75.60
1361;DHT22;674;45.552;-122.600;2022-08-02T08:43:12;18.40;75.70
1361;DHT22;674;45.552;-122.600;2022-08-02T08:45:45;18.40;83.70
1361;DHT22;674;45.552;-122.600;2022-08-02T08:48:23;18.40;88.80
1361;DHT22;674;45.552;-122.600;2022-08-02T08:51:10;18.30;88.90
1361;DHT22;674;45.552;-122.600;2022-08-02T08:53:47;18.30;90.50
1361;DHT22;674;45.552;-122.600;2022-08-02T08:56:16;18.20;92.90
1361;DHT22;674;45.552;-122.600;2022-08-02T08:58:45;18.10;95.70
1361;DHT22;674;45.552;-122.600;2022-08-02T09:01:15;18.20;97.10
1361;DHT22;674;45.552;-122.600;2022-08-02T09:03:44;18.10;97.90
1361;DHT22;674;45.552;-122.600;2022-08-02T09:06:13;18.10;98.80
1361;DHT22;674;45.552;-122.600;2022-08-02T09:08:41;18.10;99.90
1361;DHT22;674;45.552;-122.600;2022-08-02T09:11:23;18.10;99.90
1361;DHT22;674;45.552;-122.600;2022-08-02T09:13:59;18.10;99.70
1361;DHT22;674;45.552;-122.600;2022-08-02T09:16:39;18.20;98.70
1361;DHT22;674;45.552;-122.600;2022-08-02T09:19:21;18.20;99.10
1361;DHT22;674;45.552;-122.600;2022-08-02T09:22:06;18.10;99.90
1361;DHT22;674;45.552;-122.600;2022-08-02T09:24:47;18.00;99.90
1361;DHT22;674;45.552;-122.600;2022-08-02T09:27:19;18.00;99.90
1361;DHT22;674;45.552;-122.600;2022-08-02T09:29:52;18.00;99.90
1361;DHT22;674;45.552;-122.600;2022-08-02T09:32:46;17.90;99.90
1361;DHT22;674;45.552;-122.600;2022-08-02T09:35:33;17.90;99.90
1361;DHT22;674;45.552;-122.600;2022-08-02T09:38:21;17.90;99.90
1361;DHT22;674;45.552;-122.600;2022-08-02T09:40:52;17.80;99.90
1361;DHT22;674;45.552;-122.600;2022-08-02T09:43:21;17.80;99.90
1361;DHT22;674;45.552;-122.600;2022-08-02T09:46:12;17.80;99.90
1361;DHT22;674;45.552;-122.600;2022-08-02T09:51:28;17.80;99.90
1361;DHT22;674;45.552;-122.600;2022-08-02T09:53:59;17.80;99.90
1361;DHT22;674;45.552;-122.600;2022-08-02T09:56:46;17.80;99.90
1361;DHT22;674;45.552;-122.600;2022-08-02T09:59:17;17.80;99.90
1361;DHT22;674;45.552;-122.600;2022-08-02T10:01:48;17.80;99.90
1361;DHT22;674;45.552;-122.600;2022-08-02T10:04:36;17.80;99.90
1361;DHT22;674;45.552;-122.600;2022-08-02T10:07:22;17.70;99.90
1361;DHT22;674;45.552;-122.600;2022-08-02T10:09:51;17.70;99.90
1361;DHT22;674;45.552;-122.600;2022-08-02T10:12:20;17.70;99.90
1361;DHT22;674;45.552;-122.600;2022-08-02T10:14:50;17.70;99.90
1361;DHT22;674;45.552;-122.600;2022-08-02T10:17:20;17.70;99.90
1361;DHT22;674;45.552;-122.600;2022-08-02T10:19:49;17.60;99.90
1361;DHT22;674;45.552;-122.600;2022-08-02T10:22:27;17.70;99.90
1361;DHT22;674;45.552;-122.600;2022-08-02T10:24:57;17.60;99.90
1361;DHT22;674;45.552;-122.600;2022-08-02T10:27:28;17.60;99.90
1361;DHT22;674;45.552;-122.600;2022-08-02T10:30:17;17.60;99.90
1361;DHT22;674;45.552;-122.600;2022-08-02T10:32:46;17.60;99.90
1361;DHT22;674;45.552;-122.600;2022-08-02T10:35:20;17.70;99.90
1361;DHT22;674;45.552;-122.600;2022-08-02T10:37:55;17.70;99.90
1361;DHT22;674;45.552;-122.600;2022-08-02T10:40:25;17.60;99.90
1361;DHT22;674;45.552;-122.600;2022-08-02T10:43:10;17.60;99.90
1361;DHT22;674;45.552;-122.600;2022-08-02T10:45:39;17.50;99.90
1361;DHT22;674;45.552;-122.600;2022-08-02T10:48:09;17.50;99.90
1361;DHT22;674;45.552;-122.600;2022-08-02T10:53:31;17.70;99.90
1361;DHT22;674;45.552;-122.600;2022-08-02T10:56:02;17.70;99.90
1361;DHT22;674;45.552;-122.600;2022-08-02T10:58:32;17.80;99.90
1361;DHT22;674;45.552;-122.600;2022-08-02T11:01:27;17.90;99.90
1361;DHT22;674;45.552;-122.600;2022-08-02T11:04:06;18.00;99.90
1361;DHT22;674;45.552;-122.600;2022-08-02T11:07:15;18.00;99.90
1361;DHT22;674;45.552;-122.600;2022-08-02T11:09:49;18.20;99.90
1361;DHT22;674;45.552;-122.600;2022-08-02T11:12:19;18.20;99.90
1361;DHT22;674;45.552;-122.600;2022-08-02T11:15:03;18.00;99.90
1361;DHT22;674;45.552;-122.600;2022-08-02T11:17:53;18.00;99.90
1361;DHT22;674;45.552;-122.600;2022-08-02T11:20:24;17.80;99.90
1361;DHT22;674;45.552;-122.600;2022-08-02T11:23:32;17.70;99.90
1361;DHT22;674;45.552;-122.600;2022-08-02T11:25:41;17.70;99.90
1361;DHT22;674;45.552;-122.600;2022-08-02T11:28:30;17.70;99.90
1361;DHT22;674;45.552;-122.600;2022-08-02T11:31:00;17.60;99.90
1361;DHT22;674;45.552;-122.600;2022-08-02T11:33:30;17.70;99.90
1361;DHT22;674;45.552;-122.600;2022-08-02T11:36:02;17.70;99.90
1361;DHT22;674;45.552;-122.600;2022-08-02T11:38:31;17.70;99.90
1361;DHT22;674;45.552;-122.600;2022-08-02T11:40:59;17.80;99.90
1361;DHT22;674;45.552;-122.600;2022-08-02T11:43:37;17.80;99.90
1361;DHT22;674;45.552;-122.600;2022-08-02T11:46:13;17.70;99.90
1361;DHT22;674;45.552;-122.600;2022-08-02T11:48:42;17.50;99.90
1361;DHT22;674;45.552;-122.600;2022-08-02T11:51:17;17.40;99.90
1361;DHT22;674;45.552;-122.600;2022-08-02T11:53:49;17.40;99.90
1361;DHT22;674;45.552;-122.600;2022-08-02T11:56:26;17.30;99.90
1361;DHT22;674;45.552;-122.600;2022-08-02T11:59:04;17.30;99.90
1361;DHT22;674;45.552;-122.600;2022-08-02T12:01:36;17.30;99.90
1361;DHT22;674;45.552;-122.600;2022-08-02T12:04:16;17.20;99.90
1361;DHT22;674;45.552;-122.600;2022-08-02T12:06:57;17.10;99.90
1361;DHT22;674;45.552;-122.600;2022-08-02T12:09:27;17.10;99.90
1361;DHT22;674;45.552;-122.600;2022-08-02T12:11:57;17.10;99.90
1361;DHT22;674;45.552;-122.600;2022-08-02T12:14:27;17.00;99.90
1361;DHT22;674;45.552;-122.600;2022-08-02T12:16:57;17.00;99.90
1361;DHT22;674;45.552;-122.600;2022-08-02T12:19:44;16.90;99.90
1361;DHT22;674;45.552;-122.600;2022-08-02T12:22:18;16.90;99.90
1361;DHT22;674;45.552;-122.600;2022-08-02T12:24:54;16.80;99.90
1361;DHT22;674;45.552;-122.600;2022-08-02T12:27:32;16.90;99.90
1361;DHT22;674;45.552;-122.600;2022-08-02T12:30:18;16.80;99.90
1361;DHT22;674;45.552;-122.600;2022-08-02T12:33:07;16.80;99.90
1361;DHT22;674;45.552;-122.600;2022-08-02T12:35:39;16.80;99.90
1361;DHT22;674;45.552;-122.600;2022-08-02T12:38:11;16.80;99.90
1361;DHT22;674;45.552;-122.600;2022-08-02T12:40:40;16.80;99.90
1361;DHT22;674;45.552;-122.600;2022-08-02T12:43:17;16.80;99.90
1361;DHT22;674;45.552;-122.600;2022-08-02T12:45:51;16.80;99.90
1361;DHT22;674;45.552;-122.600;2022-08-02T12:48:46;16.80;99.90
1361;DHT22;674;45.552;-122.600;2022-08-02T12:51:38;16.80;99.90
1361;DHT22;674;45.552;-122.600;2022-08-02T12:54:29;16.70;99.90
1361;DHT22;674;45.552;-122.600;2022-08-02T12:57:13;16.70;99.90
1361;DHT22;674;45.552;-122.600;2022-08-02T12:59:43;16.80;99.90
1361;DHT22;674;45.552;-122.600;2022-08-02T13:02:12;16.60;99.90
1361;DHT22;674;45.552;-122.600;2022-08-02T13:04:43;16.70;99.90
1361;DHT22;674;45.552;-122.600;2022-08-02T13:07:17;16.60;99.90
1361;DHT22;674;45.552;-122.600;2022-08-02T13:09:46;16.60;99.90
1361;DHT22;674;45.552;-122.600;2022-08-02T13:12:28;16.60;99.90
1361;DHT22;674;45.552;-122.600;2022-08-02T13:14:57;16.70;99.90
1361;DHT22;674;45.552;-122.600;2022-08-02T13:17:25;16.70;99.90
1361;DHT22;674;45.552;-122.600;2022-08-02T13:19:53;16.80;99.90
1361;DHT22;674;45.552;-122.600;2022-08-02T13:22:23;16.80;99.90
1361;DHT22;674;45.552;-122.600;2022-08-02T13:24:54;16.90;99.90
1361;DHT22;674;45.552;-122.600;2022-08-02T13:27:24;16.90;99.90
1361;DHT22;674;45.552;-122.600;2022-08-02T13:29:55;17.00;99.90
1361;DHT22;674;45.552;-122.600;2022-08-02T13:32:24;17.00;99.90
1361;DHT22;674;45.552;-122.600;2022-08-02T13:34:56;17.00;99.90
1361;DHT22;674;45.552;-122.600;2022-08-02T13:37:24;17.00;99.90
1361;DHT22;674;45.552;-122.600;2022-08-02T13:39:55;16.90;99.90
1361;DHT22;674;45.552;-122.600;2022-08-02T13:42:43;16.90;99.90
1361;DHT22;674;45.552;-122.600;2022-08-02T13:45:12;17.00;99.90
1361;DHT22;674;45.552;-122.600;2022-08-02T13:47:42;17.00;99.90
1361;DHT22;674;45.552;-122.600;2022-08-02T13:50:31;17.10;99.90
1361;DHT22;674;45.552;-122.600;2022-08-02T13:53:00;17.30;99.90
1361;DHT22;674;45.552;-122.600;2022-08-02T13:55:28;17.30;99.90
1361;DHT22;674;45.552;-122.600;2022-08-02T13:57:57;17.50;99.90
1361;DHT22;674;45.552;-122.600;2022-08-02T14:00:26;17.70;99.90
1361;DHT22;674;45.552;-122.600;2022-08-02T14:03:04;17.90;99.90
1361;DHT22;674;45.552;-122.600;2022-08-02T14:05:39;17.90;99.90
1361;DHT22;674;45.552;-122.600;2022-08-02T14:08:16;17.90;99.90
1361;DHT22;674;45.552;-122.600;2022-08-02T14:10:46;18.00;99.90
1361;DHT22;674;45.552;-122.600;2022-08-02T14:13:15;18.10;99.90
1361;DHT22;674;45.552;-122.600;2022-08-02T14:15:45;18.20;99.90
1361;DHT22;674;45.552;-122.600;2022-08-02T14:18:14;18.40;97.30
1361;DHT22;674;45.552;-122.600;2022-08-02T14:20:43;18.70;94.80
1361;DHT22;674;45.552;-122.600;2022-08-02T14:23:12;18.50;91.00
1361;DHT22;674;45.552;-122.600;2022-08-02T14:25:41;18.70;79.70
1361;DHT22;674;45.552;-122.600;2022-08-02T14:28:10;18.70;81.40
1361;DHT22;674;45.552;-122.600;2022-08-02T14:30:38;18.70;83.60
1361;DHT22;674;45.552;-122.600;2022-08-02T14:33:07;18.70;80.00
1361;DHT22;674;45.552;-122.600;2022-08-02T14:35:35;19.10;83.40
1361;DHT22;674;45.552;-122.600;2022-08-02T14:38:04;19.20;67.40
1361;DHT22;674;45.552;-122.600;2022-08-02T14:40:32;19.30;47.30
1361;DHT22;674;45.552;-122.600;2022-08-02T14:43:01;19.40;22.00
1361;DHT22;674;45.552;-122.600;2022-08-02T14:45:30;19.40;24.80
1361;DHT22;674;45.552;-122.600;2022-08-02T14:48:08;19.50;25.10
1361;DHT22;674;45.552;-122.600;2022-08-02T14:50:37;19.10;24.50
1361;DHT22;674;45.552;-122.600;2022-08-02T14:53:05;19.00;17.30
1361;DHT22;674;45.552;-122.600;2022-08-02T14:55:38;19.20;17.60
1361;DHT22;674;45.552;-122.600;2022-08-02T14:58:06;19.30;12.20
1361;DHT22;674;45.552;-122.600;2022-08-02T15:00:35;19.20;10.40
1361;DHT22;674;45.552;-122.600;2022-08-02T15:03:08;19.40;20.10
1361;DHT22;674;45.552;-122.600;2022-08-02T15:05:38;19.90;1.00
1361;DHT22;674;45.552;-122.600;2022-08-02T15:08:07;20.30;1.00
1361;DHT22;674;45.552;-122.600;2022-08-02T15:10:35;20.00;1.00
1361;DHT22;674;45.552;-122.600;2022-08-02T15:13:04;20.30;1.00
1361;DHT22;674;45.552;-122.600;2022-08-02T15:15:33;20.40;1.00
1361;DHT22;674;45.552;-122.600;2022-08-02T15:18:10;20.50;1.00
1361;DHT22;674;45.552;-122.600;2022-08-02T15:20:39;20.70;1.00
1361;DHT22;674;45.552;-122.600;2022-08-02T15:23:14;20.90;1.00
1361;DHT22;674;45.552;-122.600;2022-08-02T15:25:44;20.80;1.00
1361;DHT22;674;45.552;-122.600;2022-08-02T15:28:12;20.80;1.00
1361;DHT22;674;45.552;-122.600;2022-08-02T15:30:41;21.10;1.00
1361;DHT22;674;45.552;-122.600;2022-08-02T15:33:09;21.20;1.00
1361;DHT22;674;45.552;-122.600;2022-08-02T15:35:37;21.70;1.00
1361;DHT22;674;45.552;-122.600;2022-08-02T15:38:06;22.20;1.00
1361;DHT22;674;45.552;-122.600;2022-08-02T15:40:34;21.80;1.00
1361;DHT22;674;45.552;-122.600;2022-08-02T15:43:03;22.30;1.00
1361;DHT22;674;45.552;-122.600;2022-08-02T15:45:31;22.50;1.00
1361;DHT22;674;45.552;-122.600;2022-08-02T15:48:02;22.80;1.00
1361;DHT22;674;45.552;-122.600;2022-08-02T15:50:31;23.70;1.00
1361;DHT22;674;45.552;-122.600;2022-08-02T15:52:59;24.80;1.00
1361;DHT22;674;45.552;-122.600;2022-08-02T15:55:27;24.50;1.00
1361;DHT22;674;45.552;-122.600;2022-08-02T15:58:16;24.80;1.00
1361;DHT22;674;45.552;-122.600;2022-08-02T16:00:48;26.00;1.00
1361;DHT22;674;45.552;-122.600;2022-08-02T16:03:17;25.70;1.00
1361;DHT22;674;45.552;-122.600;2022-08-02T16:05:46;26.00;1.00
1361;DHT22;674;45.552;-122.600;2022-08-02T16:08:14;26.80;1.00
1361;DHT22;674;45.552;-122.600;2022-08-02T16:10:43;27.20;1.00
1361;DHT22;674;45.552;-122.600;2022-08-02T16:13:11;27.00;1.00
1361;DHT22;674;45.552;-122.600;2022-08-02T16:15:58;26.50;1.00
1361;DHT22;674;45.552;-122.600;2022-08-02T16:18:26;26.10;1.00
1361;DHT22;674;45.552;-122.600;2022-08-02T16:20:55;25.80;1.00
1361;DHT22;674;45.552;-122.600;2022-08-02T16:23:25;25.30;1.00
1361;DHT22;674;45.552;-122.600;2022-08-02T16:26:14;25.40;1.00
1361;DHT22;674;45.552;-122.600;2022-08-02T16:28:42;24.80;1.00
1361;DHT22;674;45.552;-122.600;2022-08-02T16:31:10;24.50;1.00
1361;DHT22;674;45.552;-122.600;2022-08-02T16:33:39;25.10;1.00
1361;DHT22;674;45.552;-122.600;2022-08-02T16:36:10;25.40;1.00